YR221 LRIA-LRIA
Flight info
| Callsign | YR221 |
|---|---|
| Flight time | 0h 7m |
| Altitude | 4000 |
| Route | ABOLO |
| Aircraft | C172/L-SFG/C |
Departure
| Time | 2026-05-08 15:22 |
|---|---|
| Airport | Iaşi International Airport (LRIA) |
Arrival
| Time | 2026-05-08 15:29 |
|---|---|
| Airport | Iaşi International Airport (LRIA) |
| Time | Latitude | Longitude | Altitude | Speed | Heading |
|---|---|---|---|---|---|
| 2026-05-08 15:12 | 47.17735 | 27.61829 | 373 ft | 0 kts | 246° |
| 2026-05-08 15:16 | 47.17733 | 27.61823 | 373 ft | 3 kts | 238° |
| 2026-05-08 15:17 | 47.17714 | 27.61874 | 372 ft | 12 kts | 70° |
| 2026-05-08 15:17 | 47.17677 | 27.61950 | 370 ft | 17 kts | 181° |
| 2026-05-08 15:17 | 47.17555 | 27.62025 | 365 ft | 23 kts | 141° |
| 2026-05-08 15:17 | 47.17391 | 27.62187 | 359 ft | 32 kts | 151° |
| 2026-05-08 15:18 | 47.17260 | 27.62363 | 354 ft | 27 kts | 82° |
| 2026-05-08 15:18 | 47.17303 | 27.62515 | 357 ft | 0 kts | 76° |
| 2026-05-08 15:20 | 47.17306 | 27.62522 | 356 ft | 3 kts | 55° |
| 2026-05-08 15:20 | 47.17336 | 27.62586 | 355 ft | 12 kts | 49° |
| 2026-05-08 15:20 | 47.17474 | 27.62563 | 363 ft | 42 kts | 329° |
| 2026-05-08 15:20 | 47.17821 | 27.62268 | 414 ft | 66 kts | 331° |
| 2026-05-08 15:21 | 47.18201 | 27.61965 | 637 ft | 59 kts | 333° |
| 2026-05-08 15:21 | 47.18588 | 27.61639 | 709 ft | 62 kts | 326° |
| 2026-05-08 15:21 | 47.18918 | 27.61321 | 687 ft | 52 kts | 326° |
| 2026-05-08 15:21 | 47.19276 | 27.61107 | 550 ft | 55 kts | 343° |
| 2026-05-08 15:22 | 47.19954 | 27.61433 | 1288 ft | 114 kts | 32° |
| 2026-05-08 15:22 | 47.20593 | 27.62215 | 1122 ft | 130 kts | 48° |
| 2026-05-08 15:22 | 47.21107 | 27.63320 | 1105 ft | 123 kts | 51° |
| 2026-05-08 15:22 | 47.21772 | 27.63961 | 1286 ft | 110 kts | 6° |
| 2026-05-08 15:23 | 47.22323 | 27.63367 | 1360 ft | 109 kts | 286° |
| 2026-05-08 15:23 | 47.22252 | 27.62257 | 1302 ft | 115 kts | 244° |
| 2026-05-08 15:23 | 47.21789 | 27.61186 | 1080 ft | 130 kts | 230° |
| 2026-05-08 15:23 | 47.21094 | 27.60362 | 1050 ft | 128 kts | 207° |
| 2026-05-08 15:24 | 47.20272 | 27.60228 | 1149 ft | 121 kts | 164° |
| 2026-05-08 15:24 | 47.19493 | 27.60831 | 769 ft | 120 kts | 148° |
| 2026-05-08 15:24 | 47.18899 | 27.61308 | 638 ft | 82 kts | 149° |
| 2026-05-08 15:24 | 47.18433 | 27.61730 | 395 ft | 69 kts | 151° |
| 2026-05-08 15:25 | 47.18063 | 27.62051 | 391 ft | 65 kts | 147° |
| 2026-05-08 15:25 | 47.17669 | 27.62402 | 432 ft | 72 kts | 148° |
| 2026-05-08 15:25 | 47.17159 | 27.62829 | 484 ft | 93 kts | 155° |
| 2026-05-08 15:25 | 47.16551 | 27.63243 | 787 ft | 88 kts | 153° |
| 2026-05-08 15:26 | 47.16040 | 27.63738 | 986 ft | 99 kts | 139° |
| 2026-05-08 15:26 | 47.15478 | 27.64512 | 947 ft | 124 kts | 137° |
| 2026-05-08 15:26 | 47.15046 | 27.65101 | 822 ft | 131 kts | 139° |
| 2026-05-08 15:26 | 47.14440 | 27.66145 | 639 ft | 140 kts | 118° |
| 2026-05-08 15:27 | 47.14114 | 27.67480 | 531 ft | 134 kts | 107° |
| 2026-05-08 15:27 | 47.14190 | 27.68555 | 925 ft | 96 kts | 24° |
| 2026-05-08 15:27 | 47.14777 | 27.68142 | 722 ft | 114 kts | 305° |
| 2026-05-08 15:27 | 47.15150 | 27.67409 | 947 ft | 69 kts | 308° |
| 2026-05-08 15:28 | 47.15369 | 27.66847 | 816 ft | 70 kts | 276° |
| 2026-05-08 15:28 | 47.15264 | 27.66099 | 689 ft | 78 kts | 237° |
| 2026-05-08 15:28 | 47.14957 | 27.65439 | 509 ft | 80 kts | 263° |
| 2026-05-08 15:28 | 47.15119 | 27.64693 | 376 ft | 77 kts | 309° |
| 2026-05-08 15:29 | 47.15475 | 27.64171 | 237 ft | 61 kts | 321° |
| 2026-05-08 15:29 | 47.15729 | 27.63848 | 216 ft | 48 kts | 315° |
| 2026-05-08 15:29 | 47.15988 | 27.63484 | 321 ft | 48 kts | 322° |
| 2026-05-08 15:29 | 47.16307 | 27.63178 | 367 ft | 67 kts | 328° |
| 2026-05-08 15:30 | 47.16752 | 27.62820 | 515 ft | 72 kts | 335° |
| 2026-05-08 15:30 | 47.17196 | 27.62777 | 398 ft | 71 kts | 345° |
| 2026-05-08 15:30 | 47.17622 | 27.62448 | 363 ft | 57 kts | 328° |
| 2026-05-08 15:30 | 47.17914 | 27.62187 | 371 ft | 56 kts | 331° |
| 2026-05-08 15:31 | 47.18239 | 27.61894 | 461 ft | 55 kts | 326° |
| 2026-05-08 15:31 | 47.18645 | 27.61607 | 545 ft | 72 kts | 336° |
| 2026-05-08 15:31 | 47.19140 | 27.61327 | 675 ft | 85 kts | 334° |
| 2026-05-08 15:31 | 47.19661 | 27.60832 | 815 ft | 93 kts | 325° |
| 2026-05-08 15:32 | 47.20258 | 27.60302 | 893 ft | 106 kts | 341° |
| 2026-05-08 15:32 | 47.20978 | 27.59933 | 962 ft | 113 kts | 337° |
| 2026-05-08 15:32 | 47.21718 | 27.59521 | 1063 ft | 112 kts | 339° |
| 2026-05-08 15:32 | 47.22416 | 27.59133 | 1150 ft | 104 kts | 339° |
| 2026-05-08 15:33 | 47.22973 | 27.58554 | 1213 ft | 99 kts | 289° |
| 2026-05-08 15:33 | 47.23114 | 27.57592 | 1319 ft | 94 kts | 282° |
| 2026-05-08 15:33 | 47.23106 | 27.56663 | 1401 ft | 91 kts | 242° |
| 2026-05-08 15:33 | 47.22875 | 27.55806 | 1515 ft | 91 kts | 246° |
| 2026-05-08 15:34 | 47.22655 | 27.54945 | 1618 ft | 89 kts | 247° |
| 2026-05-08 15:34 | 47.22443 | 27.54089 | 1714 ft | 89 kts | 246° |
| 2026-05-08 15:34 | 47.22247 | 27.53234 | 1806 ft | 87 kts | 246° |
| 2026-05-08 15:34 | 47.22070 | 27.52439 | 1877 ft | 78 kts | 246° |
| 2026-05-08 15:35 | 47.21748 | 27.51848 | 1855 ft | 78 kts | 182° |
| 2026-05-08 15:35 | 47.21241 | 27.52141 | 1892 ft | 82 kts | 162° |
| 2026-05-08 15:35 | 47.20748 | 27.52550 | 1906 ft | 85 kts | 139° |
| 2026-05-08 15:35 | 47.20300 | 27.53152 | 1883 ft | 90 kts | 139° |
| 2026-05-08 15:36 | 47.19813 | 27.53781 | 1822 ft | 96 kts | 143° |
| 2026-05-08 15:36 | 47.19275 | 27.54376 | 1758 ft | 98 kts | 145° |
| 2026-05-08 15:36 | 47.18737 | 27.54970 | 1680 ft | 96 kts | 146° |
| 2026-05-08 15:36 | 47.18193 | 27.55529 | 1607 ft | 96 kts | 146° |
| 2026-05-08 15:37 | 47.17627 | 27.56103 | 1538 ft | 101 kts | 146° |
| 2026-05-08 15:37 | 47.17046 | 27.56689 | 1463 ft | 101 kts | 147° |
| 2026-05-08 15:37 | 47.16466 | 27.57277 | 1388 ft | 101 kts | 147° |
| 2026-05-08 15:37 | 47.15878 | 27.57869 | 1311 ft | 103 kts | 147° |
| 2026-05-08 15:38 | 47.15279 | 27.58455 | 1235 ft | 104 kts | 147° |
| 2026-05-08 15:38 | 47.14676 | 27.59045 | 1159 ft | 104 kts | 147° |
| 2026-05-08 15:38 | 47.14085 | 27.59670 | 1077 ft | 105 kts | 133° |
| 2026-05-08 15:38 | 47.13655 | 27.60546 | 1004 ft | 106 kts | 124° |
| 2026-05-08 15:39 | 47.13637 | 27.61577 | 962 ft | 105 kts | 66° |
| 2026-05-08 15:39 | 47.13924 | 27.62546 | 966 ft | 105 kts | 68° |
| 2026-05-08 15:39 | 47.14217 | 27.63545 | 991 ft | 108 kts | 68° |
| 2026-05-08 15:39 | 47.14515 | 27.64564 | 1022 ft | 109 kts | 68° |
| 2026-05-08 15:40 | 47.14812 | 27.65593 | 1050 ft | 110 kts | 68° |
| 2026-05-08 15:40 | 47.15328 | 27.66342 | 1055 ft | 108 kts | 13° |
| 2026-05-08 15:40 | 47.16007 | 27.66446 | 1034 ft | 90 kts | 352° |
| 2026-05-08 15:40 | 47.16483 | 27.65956 | 978 ft | 79 kts | 311° |
| 2026-05-08 15:41 | 47.16567 | 27.65202 | 855 ft | 78 kts | 253° |
| 2026-05-08 15:41 | 47.16457 | 27.64447 | 733 ft | 70 kts | 253° |
| 2026-05-08 15:41 | 47.16420 | 27.63728 | 596 ft | 75 kts | 285° |
| 2026-05-08 15:41 | 47.16794 | 27.63177 | 446 ft | 81 kts | 326° |
| 2026-05-08 15:42 | 47.17248 | 27.62780 | 354 ft | 67 kts | 330° |
| 2026-05-08 15:42 | 47.17600 | 27.62464 | 361 ft | 65 kts | 329° |
| 2026-05-08 15:42 | 47.17984 | 27.62127 | 419 ft | 66 kts | 331° |
| 2026-05-08 15:42 | 47.18442 | 27.61755 | 427 ft | 91 kts | 329° |
| 2026-05-08 15:43 | 47.19000 | 27.61215 | 593 ft | 101 kts | 326° |
| 2026-05-08 15:43 | 47.19645 | 27.60588 | 626 ft | 115 kts | 327° |
| 2026-05-08 15:43 | 47.20292 | 27.59952 | 759 ft | 110 kts | 326° |
| 2026-05-08 15:43 | 47.20930 | 27.59310 | 810 ft | 112 kts | 326° |
| 2026-05-08 15:44 | 47.21572 | 27.58659 | 858 ft | 112 kts | 325° |
| 2026-05-08 15:44 | 47.22212 | 27.58004 | 916 ft | 112 kts | 325° |
| 2026-05-08 15:44 | 47.22848 | 27.57353 | 968 ft | 111 kts | 325° |
| 2026-05-08 15:44 | 47.23473 | 27.56690 | 1012 ft | 111 kts | 316° |
| 2026-05-08 15:45 | 47.23696 | 27.55646 | 1057 ft | 109 kts | 272° |
| 2026-05-08 15:45 | 47.23628 | 27.54558 | 1099 ft | 109 kts | 237° |
| 2026-05-08 15:45 | 47.23054 | 27.53856 | 1164 ft | 107 kts | 218° |
| 2026-05-08 15:45 | 47.22462 | 27.53196 | 1215 ft | 107 kts | 217° |
| 2026-05-08 15:46 | 47.21870 | 27.52545 | 1268 ft | 106 kts | 216° |
| 2026-05-08 15:46 | 47.21172 | 27.52423 | 1306 ft | 105 kts | 163° |
| 2026-05-08 15:46 | 47.20469 | 27.52695 | 1364 ft | 104 kts | 166° |
| 2026-05-08 15:46 | 47.19789 | 27.53050 | 1404 ft | 106 kts | 142° |
| 2026-05-08 15:47 | 47.19533 | 27.54041 | 1454 ft | 106 kts | 104° |
| 2026-05-08 15:47 | 47.19466 | 27.55136 | 1464 ft | 109 kts | 96° |
| 2026-05-08 15:47 | 47.19435 | 27.56246 | 1467 ft | 109 kts | 94° |
| 2026-05-08 15:47 | 47.19407 | 27.57360 | 1472 ft | 112 kts | 95° |
| 2026-05-08 15:48 | 47.19359 | 27.59688 | 1479 ft | 115 kts | 98° |
| 2026-05-08 15:48 | 47.18940 | 27.60593 | 1461 ft | 111 kts | 153° |
| 2026-05-08 15:48 | 47.18243 | 27.61106 | 1216 ft | 108 kts | 154° |
| 2026-05-08 15:49 | 47.17609 | 27.61619 | 939 ft | 101 kts | 149° |
| 2026-05-08 15:49 | 47.17044 | 27.62180 | 709 ft | 91 kts | 140° |
| 2026-05-08 15:49 | 47.16649 | 27.62669 | 585 ft | 67 kts | 142° |
| 2026-05-08 15:49 | 47.16294 | 27.63115 | 321 ft | 66 kts | 137° |
| 2026-05-08 15:50 | 47.15989 | 27.63504 | 215 ft | 45 kts | 139° |
| 2026-05-08 15:50 | 47.15771 | 27.63796 | 216 ft | 53 kts | 136° |
| 2026-05-08 15:50 | 47.15500 | 27.64161 | 325 ft | 49 kts | 144° |
| 2026-05-08 15:50 | 47.15103 | 27.64518 | 348 ft | 82 kts | 148° |
| 2026-05-08 15:51 | 47.14604 | 27.65078 | 459 ft | 101 kts | 139° |
| 2026-05-08 15:51 | 47.14242 | 27.66026 | 606 ft | 112 kts | 116° |
| 2026-05-08 15:51 | 47.13918 | 27.67047 | 721 ft | 104 kts | 116° |
| 2026-05-08 15:51 | 47.13945 | 27.68044 | 748 ft | 104 kts | 66° |
| 2026-05-08 15:52 | 47.14380 | 27.68871 | 735 ft | 107 kts | 23° |
| 2026-05-08 15:52 | 47.15086 | 27.68693 | 740 ft | 106 kts | 335° |
| 2026-05-08 15:52 | 47.15525 | 27.67920 | 731 ft | 102 kts | 274° |
| 2026-05-08 15:52 | 47.15410 | 27.66942 | 732 ft | 98 kts | 227° |
| 2026-05-08 15:53 | 47.15030 | 27.66278 | 730 ft | 70 kts | 229° |
| 2026-05-08 15:53 | 47.14903 | 27.65694 | 569 ft | 69 kts | 300° |
| 2026-05-08 15:53 | 47.15062 | 27.65117 | 468 ft | 60 kts | 275° |
| 2026-05-08 15:53 | 47.15239 | 27.64556 | 508 ft | 59 kts | 323° |
| 2026-05-08 15:54 | 47.15667 | 27.64361 | 453 ft | 74 kts | 339° |
| 2026-05-08 15:54 | 47.16177 | 27.63953 | 295 ft | 84 kts | 328° |
| 2026-05-08 15:54 | 47.16603 | 27.63533 | 278 ft | 62 kts | 316° |
| 2026-05-08 15:54 | 47.16841 | 27.63228 | 325 ft | 33 kts | 326° |
| 2026-05-08 15:55 | 47.16991 | 27.63082 | 340 ft | 20 kts | 327° |
| 2026-05-08 15:55 | 47.17189 | 27.62862 | 348 ft | 19 kts | 304° |
| 2026-05-08 15:55 | 47.17288 | 27.62747 | 355 ft | 19 kts | 331° |
| 2026-05-08 15:56 | 47.17404 | 27.62643 | 357 ft | 20 kts | 329° |
| 2026-05-08 15:56 | 47.17525 | 27.62534 | 360 ft | 22 kts | 328° |
| 2026-05-08 15:56 | 47.17660 | 27.62419 | 363 ft | 23 kts | 329° |
| 2026-05-08 15:56 | 47.17797 | 27.62291 | 365 ft | 24 kts | 326° |
| 2026-05-08 15:57 | 47.17935 | 27.62167 | 371 ft | 24 kts | 329° |
| 2026-05-08 15:57 | 47.18197 | 27.61931 | 382 ft | 62 kts | 328° |
| 2026-05-08 15:57 | 47.18592 | 27.61554 | 432 ft | 71 kts | 328° |
| 2026-05-08 15:57 | 47.19011 | 27.61171 | 532 ft | 72 kts | 331° |
| 2026-05-08 15:58 | 47.19444 | 27.60796 | 641 ft | 73 kts | 330° |
| 2026-05-08 15:58 | 47.19875 | 27.60422 | 743 ft | 71 kts | 330° |
| 2026-05-08 15:58 | 47.20291 | 27.60060 | 848 ft | 69 kts | 330° |
| 2026-05-08 15:58 | 47.20701 | 27.59705 | 949 ft | 67 kts | 329° |
| 2026-05-08 15:59 | 47.21094 | 27.59365 | 1078 ft | 60 kts | 329° |
| 2026-05-08 15:59 | 47.21421 | 27.59083 | 1189 ft | 53 kts | 329° |
| 2026-05-08 15:59 | 47.21802 | 27.58852 | 1207 ft | 62 kts | 327° |
| 2026-05-08 15:59 | 47.21892 | 27.58157 | 981 ft | 94 kts | 248° |
| 2026-05-08 16:00 | 47.21488 | 27.57675 | 1193 ft | 67 kts | 195° |
| 2026-05-08 16:00 | 47.21093 | 27.57775 | 1357 ft | 54 kts | 154° |
| 2026-05-08 16:00 | 47.20746 | 27.58061 | 1434 ft | 58 kts | 151° |
| 2026-05-08 16:00 | 47.20434 | 27.58428 | 1553 ft | 60 kts | 141° |
| 2026-05-08 16:01 | 47.20130 | 27.58979 | 1526 ft | 80 kts | 127° |
| 2026-05-08 16:01 | 47.19859 | 27.59645 | 1291 ft | 73 kts | 122° |
| 2026-05-08 16:01 | 47.19591 | 27.60260 | 998 ft | 71 kts | 127° |
| 2026-05-08 16:01 | 47.19279 | 27.60791 | 735 ft | 64 kts | 135° |
| 2026-05-08 16:02 | 47.18972 | 27.61216 | 489 ft | 58 kts | 142° |
| 2026-05-08 16:02 | 47.18694 | 27.61495 | 396 ft | 38 kts | 151° |
| 2026-05-08 16:02 | 47.18512 | 27.61652 | 391 ft | 31 kts | 149° |
| 2026-05-08 16:02 | 47.18260 | 27.61880 | 385 ft | 40 kts | 149° |
| 2026-05-08 16:03 | 47.18067 | 27.62050 | 377 ft | 26 kts | 149° |
| 2026-05-08 16:03 | 47.17929 | 27.62167 | 371 ft | 20 kts | 154° |
| 2026-05-08 16:03 | 47.17831 | 27.62135 | 370 ft | 13 kts | 235° |
| 2026-05-08 16:03 | 47.17793 | 27.62042 | 371 ft | 9 kts | 243° |
| 2026-05-08 16:04 | 47.17762 | 27.61956 | 372 ft | 10 kts | 241° |
| 2026-05-08 16:04 | 47.17747 | 27.61863 | 373 ft | 5 kts | 274° |
| 2026-05-08 16:04 | 47.17772 | 27.61847 | 374 ft | 4 kts | 340° |